createdAt,value
2022-09-04T00:01:20.107Z,14.40
2022-09-04T00:03:57.302Z,14.40
2022-09-04T00:06:29.924Z,14.40
2022-09-04T00:12:08.888Z,14.30
2022-09-04T00:14:43.125Z,14.30
2022-09-04T00:17:17.692Z,14.30
2022-09-04T00:19:49.622Z,14.30
2022-09-04T00:22:29.548Z,14.30
2022-09-04T00:25:08.043Z,14.30
2022-09-04T00:27:45.285Z,14.20
2022-09-04T00:30:17.379Z,14.20
2022-09-04T00:32:53.082Z,14.10
2022-09-04T00:35:26.074Z,14.10
2022-09-04T00:37:59.355Z,14.10
2022-09-04T00:40:31.258Z,14.10
2022-09-04T00:43:23.273Z,14.10
2022-09-04T00:46:08.032Z,14.10
2022-09-04T00:49:00.329Z,14.10
2022-09-04T00:51:34.585Z,14.10
2022-09-04T00:54:39.031Z,14.10
2022-09-04T00:57:31.280Z,14.00
2022-09-04T01:00:10.947Z,14.00
2022-09-04T01:03:02.258Z,14.00
2022-09-04T01:05:46.170Z,13.90
2022-09-04T01:08:24.548Z,13.90
2022-09-04T01:11:08.161Z,13.90
2022-09-04T01:13:42.241Z,13.90
2022-09-04T01:16:16.865Z,13.80
2022-09-04T01:18:56.331Z,13.80
2022-09-04T01:21:57.960Z,13.70
2022-09-04T01:24:52.909Z,13.60
2022-09-04T01:27:27.641Z,13.60
2022-09-04T01:30:06.710Z,13.60
2022-09-04T01:32:45.254Z,13.50
2022-09-04T01:35:23.914Z,13.50
2022-09-04T01:38:01.068Z,13.40
2022-09-04T01:40:36.812Z,13.40
2022-09-04T01:43:11.553Z,13.30
2022-09-04T01:45:46.850Z,13.30
2022-09-04T01:48:18.139Z,13.30
2022-09-04T01:50:51.358Z,13.20
2022-09-04T01:53:25.912Z,13.20
2022-09-04T01:55:58.650Z,13.20
2022-09-04T01:58:38.726Z,13.10
2022-09-04T02:01:13.248Z,13.10
2022-09-04T02:03:50.303Z,13.00
2022-09-04T02:06:27.731Z,13.00
2022-09-04T02:12:09.525Z,13.00
2022-09-04T02:14:49.242Z,12.80
2022-09-04T02:17:22.881Z,12.90
2022-09-04T02:20:11.096Z,12.80
2022-09-04T02:22:45.862Z,12.80
2022-09-04T02:25:23.683Z,12.80
2022-09-04T02:28:07.116Z,12.70
2022-09-04T02:30:44.784Z,12.70
2022-09-04T02:33:21.670Z,12.70
2022-09-04T02:35:59.935Z,12.80
2022-09-04T02:38:33.518Z,12.70
2022-09-04T02:41:10.314Z,12.70
2022-09-04T02:43:54.638Z,12.70
2022-09-04T02:46:31.956Z,12.70
2022-09-04T02:49:13.253Z,12.70
2022-09-04T02:51:59.415Z,12.70
2022-09-04T02:54:41.818Z,12.70
2022-09-04T02:57:20.472Z,12.70
2022-09-04T03:00:03.491Z,12.70
2022-09-04T03:02:37.344Z,12.70
2022-09-04T03:05:13.482Z,12.70
2022-09-04T03:07:49.996Z,12.60
2022-09-04T03:10:20.773Z,12.60
2022-09-04T03:12:54.311Z,12.60
2022-09-04T03:15:29.057Z,12.60
2022-09-04T03:18:04.091Z,12.50
2022-09-04T03:20:40.450Z,12.50
2022-09-04T03:23:16.863Z,12.50
2022-09-04T03:26:14.751Z,12.50
2022-09-04T03:28:53.983Z,12.40
2022-09-04T03:31:30.760Z,12.40
2022-09-04T03:34:33.891Z,12.40
2022-09-04T03:37:15.693Z,12.40
2022-09-04T03:39:55.593Z,12.40
2022-09-04T03:42:34.763Z,12.40
2022-09-04T03:45:13.737Z,12.40
2022-09-04T03:47:48.773Z,12.40
2022-09-04T03:50:28.390Z,12.40
2022-09-04T03:53:06.357Z,12.30
2022-09-04T03:56:05.216Z,12.40
2022-09-04T03:58:41.475Z,12.40
2022-09-04T04:01:21.610Z,12.30
2022-09-04T04:04:21.559Z,12.30
2022-09-04T04:06:57.532Z,12.30
2022-09-04T04:09:54.298Z,12.30
2022-09-04T04:12:39.407Z,12.20
2022-09-04T04:15:24.246Z,12.20
2022-09-04T04:18:13.460Z,12.20
2022-09-04T04:20:47.303Z,12.20
2022-09-04T04:23:56.958Z,12.10
2022-09-04T04:26:38.337Z,12.20
2022-09-04T04:29:28.744Z,12.20
2022-09-04T04:32:11.797Z,12.10
2022-09-04T04:34:54.153Z,12.10
2022-09-04T04:37:35.345Z,12.10
2022-09-04T04:40:12.373Z,12.10
2022-09-04T04:42:49.474Z,12.00
2022-09-04T04:45:43.537Z,12.10
2022-09-04T04:48:43.024Z,12.10
2022-09-04T04:51:26.606Z,12.10
2022-09-04T04:54:06.157Z,12.20
2022-09-04T04:56:47.322Z,12.20
2022-09-04T04:59:24.023Z,12.30
2022-09-04T05:02:04.860Z,12.40
2022-09-04T05:04:46.014Z,12.50
2022-09-04T05:07:28.276Z,12.60
2022-09-04T05:10:02.824Z,12.60
2022-09-04T05:12:37.264Z,12.80
2022-09-04T05:15:14.408Z,12.90
2022-09-04T05:17:51.900Z,13.00
2022-09-04T05:20:27.616Z,13.10
2022-09-04T05:23:07.018Z,13.20
2022-09-04T05:25:41.966Z,13.40
2022-09-04T05:28:25.338Z,13.50
2022-09-04T05:31:02.224Z,13.60
2022-09-04T05:33:39.218Z,13.70
2022-09-04T05:36:14.453Z,13.80
2022-09-04T05:38:51.293Z,14.00
2022-09-04T05:41:36.150Z,14.20
2022-09-04T05:44:24.790Z,14.40
2022-09-04T05:47:05.978Z,14.50
2022-09-04T05:49:48.751Z,14.60
2022-09-04T05:52:35.496Z,14.70
2022-09-04T05:55:32.021Z,14.70
2022-09-04T05:58:39.401Z,14.80
2022-09-04T06:01:25.143Z,14.80
2022-09-04T06:04:17.040Z,14.90
2022-09-04T06:06:55.620Z,14.80
2022-09-04T06:09:32.827Z,14.80
2022-09-04T06:12:28.739Z,14.70
2022-09-04T06:15:11.697Z,14.70
2022-09-04T06:17:58.920Z,14.80
2022-09-04T06:20:45.630Z,14.90
2022-09-04T06:23:28.492Z,15.10
2022-09-04T06:26:22.945Z,15.30
2022-09-04T06:29:15.159Z,15.60
2022-09-04T06:31:54.972Z,15.70
2022-09-04T06:34:39.682Z,16.00
2022-09-04T06:37:18.126Z,16.20
2022-09-04T06:40:12.188Z,16.30
2022-09-04T06:43:04.803Z,16.50
2022-09-04T06:45:46.498Z,16.60
2022-09-04T06:48:27.236Z,17.10
2022-09-04T06:51:08.048Z,17.70
2022-09-04T06:53:42.546Z,18.60
2022-09-04T06:56:34.595Z,20.20
2022-09-04T06:59:37.004Z,22.00
2022-09-04T07:02:22.024Z,23.10
2022-09-04T07:05:04.026Z,23.50
2022-09-04T07:07:42.109Z,24.40
2022-09-04T07:10:15.467Z,25.90
2022-09-04T07:13:09.457Z,27.50
2022-09-04T07:16:11.290Z,28.90
2022-09-04T07:18:55.703Z,30.70
2022-09-04T07:21:30.757Z,32.40
2022-09-04T07:24:08.044Z,33.80
2022-09-04T07:26:44.127Z,34.90
2022-09-04T07:29:30.853Z,34.90
2022-09-04T07:32:05.531Z,34.50
2022-09-04T07:34:44.772Z,34.10
2022-09-04T07:37:27.860Z,35.00
2022-09-04T07:40:10.107Z,35.70
2022-09-04T07:42:46.864Z,35.80
2022-09-04T07:45:25.911Z,36.80
2022-09-04T07:48:05.331Z,37.50
2022-09-04T07:50:38.206Z,36.70
2022-09-04T07:53:24.972Z,37.10
2022-09-04T07:56:00.073Z,37.60
2022-09-04T07:58:58.491Z,38.80
2022-09-04T08:01:54.115Z,39.40
2022-09-04T08:04:55.402Z,40.20
2022-09-04T08:07:48.774Z,40.40
2022-09-04T08:10:31.577Z,41.00
2022-09-04T08:13:33.652Z,41.50
2022-09-04T08:16:08.234Z,41.80
2022-09-04T08:19:01.619Z,42.30
2022-09-04T08:21:32.161Z,42.60
2022-09-04T08:24:22.473Z,42.80
2022-09-04T08:27:05.379Z,43.00
2022-09-04T08:29:52.856Z,42.80
2022-09-04T08:32:43.129Z,41.90
2022-09-04T08:35:26.067Z,41.30
2022-09-04T08:38:25.529Z,40.00
2022-09-04T08:41:30.019Z,38.60
2022-09-04T08:44:23.891Z,38.10
2022-09-04T08:47:14.149Z,38.20
2022-09-04T08:50:19.003Z,39.00
2022-09-04T08:53:16.983Z,40.70
2022-09-04T08:55:56.775Z,42.30
2022-09-04T08:59:17.596Z,43.70
2022-09-04T09:02:08.288Z,44.60
2022-09-04T09:05:14.974Z,45.10
2022-09-04T09:08:31.822Z,45.90
2022-09-04T09:11:39.465Z,47.20
2022-09-04T09:14:49.080Z,47.30
2022-09-04T09:17:37.463Z,46.50
2022-09-04T09:20:27.905Z,47.40
2022-09-04T09:23:21.062Z,47.50
2022-09-04T09:26:12.796Z,48.50
2022-09-04T09:29:20.406Z,49.40
2022-09-04T09:32:29.069Z,49.80
2022-09-04T09:35:51.847Z,50.00
2022-09-04T09:38:48.657Z,50.80
2022-09-04T09:41:56.086Z,51.10
2022-09-04T09:44:55.435Z,51.40
2022-09-04T09:47:53.590Z,51.90
2022-09-04T09:50:56.568Z,52.00
2022-09-04T09:54:13.155Z,52.00
2022-09-04T09:57:33.417Z,52.00
2022-09-04T10:00:17.325Z,52.30
2022-09-04T10:03:15.938Z,51.80
2022-09-04T10:06:17.616Z,51.40
2022-09-04T10:09:22.392Z,51.30
2022-09-04T10:12:12.559Z,51.40
2022-09-04T10:15:25.214Z,51.80
2022-09-04T10:18:12.192Z,52.30
2022-09-04T10:21:10.440Z,52.60
2022-09-04T10:24:06.126Z,53.10
2022-09-04T10:27:04.204Z,52.60
2022-09-04T10:29:45.708Z,53.00
2022-09-04T10:32:51.668Z,52.80
2022-09-04T10:35:26.318Z,52.90
2022-09-04T10:38:31.456Z,52.10
2022-09-04T10:41:26.252Z,52.10
2022-09-04T10:44:15.206Z,52.40
2022-09-04T10:46:55.172Z,52.60
2022-09-04T10:49:52.349Z,52.40
2022-09-04T10:53:01.295Z,52.60
2022-09-04T10:55:57.283Z,53.10
2022-09-04T10:58:40.212Z,52.90
2022-09-04T11:01:30.298Z,52.80
2022-09-04T11:04:18.980Z,52.30
2022-09-04T11:07:18.896Z,52.70
2022-09-04T11:10:16.872Z,53.00
2022-09-04T11:13:04.910Z,52.70
2022-09-04T11:16:02.353Z,52.40
2022-09-04T11:18:59.794Z,51.50
2022-09-04T11:22:12.922Z,50.80
2022-09-04T11:25:27.255Z,51.10
2022-09-04T11:28:13.784Z,51.20
2022-09-04T11:31:07.321Z,50.90
2022-09-04T11:34:05.430Z,50.50
2022-09-04T11:37:16.284Z,49.60
2022-09-04T11:40:14.436Z,48.60
2022-09-04T11:42:57.899Z,47.70
2022-09-04T11:45:59.527Z,46.90
2022-09-04T11:48:54.548Z,46.80
2022-09-04T11:52:04.093Z,46.80
2022-09-04T11:55:01.046Z,46.70
2022-09-04T11:57:41.828Z,46.90
2022-09-04T12:00:12.882Z,45.60
2022-09-04T12:03:10.535Z,44.90
2022-09-04T12:05:56.005Z,45.00
2022-09-04T12:08:38.666Z,46.20
2022-09-04T12:11:45.918Z,46.70
2022-09-04T12:14:32.822Z,46.70
2022-09-04T12:17:33.585Z,46.90
2022-09-04T12:20:34.159Z,46.20
2022-09-04T12:23:19.160Z,45.30
2022-09-04T12:26:36.219Z,43.30
2022-09-04T12:29:53.716Z,43.60
2022-09-04T12:32:45.485Z,43.80
2022-09-04T12:35:43.892Z,43.90
2022-09-04T12:38:26.427Z,42.70
2022-09-04T12:41:03.300Z,42.80
2022-09-04T12:43:45.223Z,42.70
2022-09-04T12:46:35.722Z,43.20
2022-09-04T12:49:24.468Z,43.00
2022-09-04T12:51:58.242Z,42.70
2022-09-04T12:54:38.720Z,42.50
2022-09-04T12:57:24.521Z,42.40
2022-09-04T13:00:05.752Z,42.00
2022-09-04T13:02:51.995Z,41.80
2022-09-04T13:05:35.356Z,41.40
2022-09-04T13:08:18.908Z,41.00
2022-09-04T13:11:00.156Z,41.00
2022-09-04T13:13:42.271Z,40.70
2022-09-04T13:16:17.277Z,39.60
2022-09-04T13:19:00.713Z,38.70
2022-09-04T13:21:42.544Z,38.50
2022-09-04T13:24:19.998Z,37.10
2022-09-04T13:27:03.643Z,35.90
2022-09-04T13:29:54.779Z,35.50
2022-09-04T13:32:38.552Z,35.20
2022-09-04T13:35:19.425Z,34.40
2022-09-04T13:38:07.880Z,33.90
2022-09-04T13:40:54.997Z,33.30
2022-09-04T13:43:49.579Z,33.10
2022-09-04T13:46:22.067Z,32.80
2022-09-04T13:48:52.905Z,32.50
2022-09-04T13:51:29.939Z,32.30
2022-09-04T13:54:06.554Z,32.30
2022-09-04T13:57:04.358Z,32.20
2022-09-04T13:59:33.225Z,32.10
2022-09-04T14:02:08.611Z,32.10
2022-09-04T14:04:43.904Z,31.80
2022-09-04T14:07:19.546Z,31.30
2022-09-04T14:09:50.774Z,30.90
2022-09-04T14:12:43.046Z,30.60
2022-09-04T14:15:40.220Z,30.60
2022-09-04T14:18:27.949Z,30.60
2022-09-04T14:21:01.468Z,30.30
2022-09-04T14:23:47.371Z,30.00
2022-09-04T14:26:25.814Z,29.60
2022-09-04T14:29:00.670Z,29.60
2022-09-04T14:31:35.261Z,29.10
2022-09-04T14:34:15.082Z,28.90
2022-09-04T14:36:54.464Z,28.70
2022-09-04T14:39:30.800Z,28.40
2022-09-04T14:42:23.456Z,28.30
2022-09-04T14:45:09.493Z,28.00
2022-09-04T14:47:45.041Z,27.90
2022-09-04T14:50:15.071Z,27.70
2022-09-04T14:52:46.627Z,27.70
2022-09-04T14:55:19.100Z,27.70
2022-09-04T14:57:52.247Z,27.70
2022-09-04T15:00:23.434Z,27.70
2022-09-04T15:03:00.901Z,27.60
2022-09-04T15:05:34.122Z,27.50
2022-09-04T15:08:07.067Z,27.30
2022-09-04T15:10:47.539Z,27.10
2022-09-04T15:13:38.848Z,27.00
2022-09-04T15:16:18.335Z,27.00
2022-09-04T15:18:56.692Z,27.10
2022-09-04T15:21:31.932Z,27.20
2022-09-04T15:24:13.192Z,27.10
2022-09-04T15:26:49.447Z,26.90
2022-09-04T15:29:27.183Z,26.70
2022-09-04T15:32:01.531Z,26.40
2022-09-04T15:34:30.484Z,26.20
2022-09-04T15:37:22.820Z,26.10
2022-09-04T15:39:59.063Z,25.90
2022-09-04T15:42:42.985Z,25.90
2022-09-04T15:45:22.618Z,25.80
2022-09-04T15:48:11.193Z,25.80
2022-09-04T15:50:51.318Z,25.70
2022-09-04T15:53:27.210Z,25.70
2022-09-04T15:56:09.608Z,25.70
2022-09-04T15:58:53.130Z,25.60
2022-09-04T16:01:27.671Z,25.60
2022-09-04T16:04:03.409Z,25.50
2022-09-04T16:06:39.889Z,25.40
2022-09-04T16:09:13.263Z,25.20
2022-09-04T16:11:46.784Z,25.10
2022-09-04T16:14:24.049Z,25.00
2022-09-04T16:16:55.404Z,24.90
2022-09-04T16:19:30.046Z,24.90
2022-09-04T16:22:11.148Z,24.80
2022-09-04T16:24:43.714Z,24.90
2022-09-04T16:27:15.316Z,24.80
2022-09-04T16:29:51.101Z,24.80
2022-09-04T16:32:24.159Z,24.80
2022-09-04T16:34:59.109Z,24.80
2022-09-04T16:37:32.549Z,24.80
2022-09-04T16:40:13.473Z,24.80
2022-09-04T16:42:47.027Z,24.80
2022-09-04T16:45:22.491Z,24.80
2022-09-04T16:47:55.575Z,24.80
2022-09-04T16:50:28.845Z,24.80
2022-09-04T16:53:14.409Z,24.80
2022-09-04T16:55:50.556Z,24.70
2022-09-04T16:58:35.144Z,24.70
2022-09-04T17:01:15.604Z,24.70
2022-09-04T17:04:13.922Z,24.60
2022-09-04T17:07:02.680Z,24.50
2022-09-04T17:09:51.138Z,24.40
2022-09-04T17:12:28.898Z,24.30
2022-09-04T17:15:07.521Z,24.10
2022-09-04T17:17:42.547Z,24.10
2022-09-04T17:20:13.805Z,23.90
2022-09-04T17:29:00.455Z,23.80
2022-09-04T17:29:11.753Z,23.70
2022-09-04T17:29:28.135Z,23.60
2022-09-04T17:31:54.440Z,23.50
2022-09-04T17:40:36.758Z,23.20
2022-09-04T17:40:44.299Z,23.30
2022-09-04T17:41:36.791Z,23.10
2022-09-04T17:43:32.946Z,22.90
2022-09-04T17:46:24.515Z,22.70
2022-09-04T17:48:53.491Z,22.60
2022-09-04T17:51:26.954Z,22.50
2022-09-04T17:53:59.713Z,22.40
2022-09-04T17:56:32.381Z,22.30
2022-09-04T17:59:06.345Z,22.20
2022-09-04T18:01:40.214Z,22.10
2022-09-04T18:04:22.599Z,22.10
2022-09-04T18:07:53.128Z,22.00
2022-09-04T18:10:01.433Z,21.90
2022-09-04T18:12:36.226Z,21.80
2022-09-04T18:15:32.341Z,21.70
2022-09-04T18:18:06.526Z,21.70
2022-09-04T18:20:39.351Z,21.60
2022-09-04T18:23:50.915Z,21.50
2022-09-04T18:26:40.332Z,21.40
2022-09-04T18:31:41.592Z,21.30
2022-09-04T18:37:16.621Z,21.20
2022-09-04T18:37:26.907Z,21.20
2022-09-04T18:38:49.114Z,21.10
2022-09-04T18:50:22.701Z,21.10
2022-09-04T18:50:33.451Z,21.00
2022-09-04T18:50:44.806Z,21.00
2022-09-04T18:51:12.527Z,21.00
2022-09-04T18:53:27.718Z,20.90
2022-09-04T18:56:01.014Z,20.90
2022-09-04T18:58:39.840Z,20.90
2022-09-04T19:01:14.403Z,20.90
2022-09-04T19:03:47.025Z,20.90
2022-09-04T19:06:19.305Z,20.90
2022-09-04T19:08:51.277Z,20.90
2022-09-04T19:11:26.649Z,20.80
2022-09-04T19:14:10.539Z,20.80
2022-09-04T19:16:41.712Z,20.80
2022-09-04T19:19:17.485Z,20.70
2022-09-04T19:21:58.243Z,20.60
2022-09-04T19:24:34.339Z,20.60
2022-09-04T19:27:27.714Z,20.50
2022-09-04T19:30:18.203Z,20.40
2022-09-04T19:33:02.643Z,20.40
2022-09-04T19:35:36.904Z,20.30
2022-09-04T19:42:20.119Z,20.30
2022-09-04T19:46:06.361Z,20.20
2022-09-04T19:46:08.362Z,20.20
2022-09-04T19:47:07.800Z,20.10
2022-09-04T19:53:11.469Z,20.00
2022-09-04T19:53:30.980Z,19.90
2022-09-04T19:55:47.637Z,19.80
2022-09-04T19:58:20.223Z,19.80
2022-09-04T20:00:57.503Z,19.70
2022-09-04T20:03:32.676Z,19.60
2022-09-04T20:06:07.725Z,19.50
2022-09-04T20:08:54.015Z,19.50
2022-09-04T20:11:28.609Z,19.40
2022-09-04T20:14:21.810Z,19.40
2022-09-04T20:17:01.218Z,19.30
2022-09-04T20:19:38.759Z,19.20
2022-09-04T20:22:15.458Z,19.20
2022-09-04T20:25:01.194Z,19.10
2022-09-04T20:27:36.253Z,19.10
2022-09-04T20:30:11.956Z,19.00
2022-09-04T20:32:56.238Z,19.00
2022-09-04T20:35:33.824Z,18.90
2022-09-04T20:38:12.451Z,18.90
2022-09-04T20:40:44.600Z,18.90
2022-09-04T20:43:21.396Z,18.80
2022-09-04T20:48:02.307Z,18.80
2022-09-04T20:52:58.854Z,18.80
2022-09-04T20:53:00.036Z,18.80
2022-09-04T20:55:04.602Z,18.70
2022-09-04T21:00:50.188Z,18.70
2022-09-04T21:03:22.836Z,18.70
2022-09-04T21:03:56.456Z,18.60
2022-09-04T21:06:34.804Z,18.60
2022-09-04T21:09:17.785Z,18.50
2022-09-04T21:11:48.448Z,18.50
2022-09-04T21:14:26.846Z,18.40
2022-09-04T21:17:33.526Z,18.40
2022-09-04T21:20:59.335Z,18.30
2022-09-04T21:24:03.861Z,18.30
2022-09-04T21:26:57.476Z,18.20
2022-09-04T21:29:48.416Z,18.20
2022-09-04T21:32:41.282Z,18.10
2022-09-04T21:35:16.921Z,18.10
2022-09-04T21:37:56.310Z,18.10
2022-09-04T21:40:52.690Z,18.00
2022-09-04T21:43:47.046Z,18.00
2022-09-04T21:46:37.899Z,18.00
2022-09-04T21:49:36.870Z,17.90
2022-09-04T21:52:25.962Z,17.90
2022-09-04T21:57:45.724Z,17.90
2022-09-04T22:02:26.918Z,17.90
2022-09-04T22:02:41.328Z,17.80
2022-09-04T22:04:21.394Z,17.70
2022-09-04T22:07:13.030Z,17.70
2022-09-04T22:13:32.522Z,17.70
2022-09-04T22:13:38.855Z,17.70
2022-09-04T22:16:03.534Z,17.60
2022-09-04T22:18:59.714Z,17.60
2022-09-04T22:21:41.646Z,17.60
2022-09-04T22:24:47.998Z,17.60
2022-09-04T22:27:58.680Z,17.50
2022-09-04T22:30:36.190Z,17.50
2022-09-04T22:34:14.526Z,17.50
2022-09-04T22:37:05.189Z,17.40
2022-09-04T22:40:08.033Z,17.40
2022-09-04T22:42:48.407Z,17.40
2022-09-04T22:45:56.109Z,17.40
2022-09-04T22:48:43.100Z,17.40
2022-09-04T22:51:28.557Z,17.40
2022-09-04T22:54:17.661Z,17.40
2022-09-04T22:56:53.655Z,17.40
2022-09-04T22:59:47.441Z,17.30
2022-09-04T23:03:09.260Z,17.30
2022-09-04T23:08:35.893Z,17.40
2022-09-04T23:13:49.326Z,17.40
2022-09-04T23:13:50.173Z,17.40
2022-09-04T23:15:33.057Z,17.40
2022-09-04T23:20:35.788Z,17.30
2022-09-04T23:26:44.301Z,17.30
2022-09-04T23:26:52.826Z,17.20
2022-09-04T23:27:29.492Z,17.20
2022-09-04T23:30:05.792Z,17.20
2022-09-04T23:33:16.045Z,17.10
2022-09-04T23:36:16.733Z,17.10
2022-09-04T23:39:18.021Z,17.10
2022-09-04T23:41:57.477Z,17.00
2022-09-04T23:44:57.870Z,17.00
2022-09-04T23:47:49.466Z,16.90
2022-09-04T23:50:32.991Z,16.80
2022-09-04T23:53:15.359Z,16.80
2022-09-04T23:55:57.265Z,16.80
2022-09-04T23:58:58.135Z,16.80
